KEUG/EUG METAR and TAF weather

Enter ICAO airport designator
Station Type Date Time Source
KEUG METAR 2020/04/07 06:54 UTC NOAA

KEUG 070654Z AUTO 22004KT 10SM FEW034 FEW043 08/06 A3012 RMK AO2 SLP199 T00830061


Station Type Date Time Source
KEUG Decoded METAR 2020/04/07 06:54 UTC NOAA

MAHLON SWEET FIELD, OR, United States (KEUG) 44-08N 123-13W 114M
Apr 07, 2020 - 02:54 AM EDT / 2020.04.07 0654 UTC
Wind: from the SW (220 degrees) at 5 MPH (4 KT):0
Visibility: 10 mile(s):0
Sky conditions: mostly clear
Temperature: 46.9 F (8.3 C)
Dew Point: 43.0 F (6.1 C)
Relative Humidity: 86%
Pressure (altimeter): 30.12 in. Hg (1019 hPa)
ob: KEUG 070654Z AUTO 22004KT 10SM FEW034 FEW043 08/06 A3012 RMK AO2 SLP199 T00830061
cycle: 7

Station Type Date Time Source
KEUG TAF 2020/04/07 06:22 UTC NOAA

TAF KEUG 070520Z 0706/0806 26005KT P6SM FEW030 SCT250
FM070800 27003KT P6SM SCT025 BKN250
FM071200 34003KT P6SM OVC025
FM071800 01005KT P6SM SCT025 BKN250
FM072200 01010KT P6SM SCT250

Example: see airport list